Time;durP1;ratioP1;P1;durP2;ratioP2;P2;SDS_P1;SDS_P2;PMS_P1;PMS_P2;Temp;Humidity;BMP_temperature;BMP_pressure;BME280_temperature;BME280_humidity;BME280_pressure;Samples;Min_cycle;Max_cycle;Signal;HPM_P1;HPM_P2
2023/06/11 00:01:17;;;;;;;;;;;;;;;22.28;49.38;101435.00;4940479;28;19962;-69
2023/06/11 00:03:43;;;;;;;;;;;;;;;22.27;49.86;101427.97;4944143;28;19925;-69
2023/06/11 00:06:10;;;;;;;;;;;;;;;22.24;50.00;101428.41;4944152;28;20328;-69
2023/06/11 00:08:35;;;;;;;;;;;;;;;22.21;50.12;101432.41;4943086;28;19934;-69
2023/06/11 00:11:00;;;;;;;;;;;;;;;22.20;49.90;101425.34;4926605;28;19934;-69
2023/06/11 00:13:27;;;;;;;;;;;;;;;22.19;49.87;101425.56;4942172;28;20392;-69
2023/06/11 00:15:52;;;;;;;;;;;;;;;22.15;50.33;101419.81;4941526;28;19945;-69
2023/06/11 00:18:17;;;;;;;;;;;;;;;22.13;50.26;101419.22;4945075;28;20400;-69
2023/06/11 00:20:43;;;;;;;;;;;;;;;22.12;50.60;101414.03;4944406;28;20349;-69
2023/06/11 00:23:08;;;;;;;;;;;;;;;22.14;50.48;101414.63;4947304;28;19930;-69
2023/06/11 00:25:33;;;;;;;;;;;;;;;22.14;50.56;101418.16;4945061;28;20461;-69
2023/06/11 00:27:59;;;;;;;;;;;;;;;22.13;50.73;101421.91;4948968;28;19922;-70
2023/06/11 00:30:24;;;;;;;;;;;;;;;22.12;50.80;101414.03;4954063;28;19953;-69
2023/06/11 00:32:49;;;;;;;;;;;;;;;22.11;50.92;101413.22;4957535;28;19921;-69
2023/06/11 00:35:14;;;;;;;;;;;;;;;22.10;50.81;101410.75;4944816;28;19918;-69
2023/06/11 00:37:40;;;;;;;;;;;;;;;22.10;50.23;101410.75;4940775;28;19918;-69
2023/06/11 00:40:05;;;;;;;;;;;;;;;22.09;50.54;101414.50;4942020;28;19918;-69
2023/06/11 00:42:33;;;;;;;;;;;;;;;22.07;50.67;101417.44;4942450;28;19929;-69
2023/06/11 00:45:01;;;;;;;;;;;;;;;22.07;50.90;101409.31;4943011;28;19914;-69
2023/06/11 00:47:26;;;;;;;;;;;;;;;22.05;51.22;101407.91;4942700;28;19954;-69
2023/06/11 00:49:51;;;;;;;;;;;;;;;22.02;51.51;101409.19;4946127;28;20445;-69
2023/06/11 00:52:18;;;;;;;;;;;;;;;22.03;51.56;101404.59;4944176;28;19922;-69
2023/06/11 00:54:43;;;;;;;;;;;;;;;21.99;51.64;101406.94;4947938;28;20018;-69
2023/06/11 00:57:08;;;;;;;;;;;;;;;21.97;51.84;101406.31;4947725;28;20041;-69
2023/06/11 00:59:34;;;;;;;;;;;;;;;21.98;51.34;101418.00;4947289;28;19918;-69
2023/06/11 01:02:17;;;;;;;;;;;;;;;21.97;51.35;101417.13;4934877;28;19961;-69
2023/06/11 01:04:44;;;;;;;;;;;;;;;21.96;51.61;101410.91;4949155;28;20295;-69
2023/06/11 01:07:12;;;;;;;;;;;;;;;21.94;51.88;101414.91;4949001;28;19922;-69
2023/06/11 01:09:37;;;;;;;;;;;;;;;21.92;51.48;101409.72;4942040;28;20017;-69
2023/06/11 01:12:02;;;;;;;;;;;;;;;21.89;52.15;101412.91;4944883;28;20014;-69
2023/06/11 01:14:27;;;;;;;;;;;;;;;21.86;51.90;101410.66;4945746;28;19933;-69
2023/06/11 01:17:02;;;;;;;;;;;;;;;21.84;52.30;101415.47;4960325;28;19997;-69
2023/06/11 01:19:43;;;;;;;;;;;;;;;21.82;52.01;101414.06;4960029;28;19949;-69
2023/06/11 01:22:15;;;;;;;;;;;;;;;21.81;52.28;101412.41;4949116;28;19982;-69
2023/06/11 01:24:55;;;;;;;;;;;;;;;21.79;52.33;101411.81;4955979;28;19919;-69
2023/06/11 01:27:42;;;;;;;;;;;;;;;21.73;52.42;101415.44;4945892;28;19923;-69
2023/06/11 01:30:10;;;;;;;;;;;;;;;21.64;53.16;101426.56;4944233;28;19995;-69
2023/06/11 01:32:36;;;;;;;;;;;;;;;21.57;53.36;101425.00;4944975;28;19951;-69
2023/06/11 01:35:01;;;;;;;;;;;;;;;21.54;53.42;101420.06;4939930;28;19914;-69
2023/06/11 01:37:29;;;;;;;;;;;;;;;21.50;53.46;101422.41;4941142;28;19918;-69
2023/06/11 01:39:54;;;;;;;;;;;;;;;21.42;53.91;101424.63;4947065;28;19961;-69
2023/06/11 01:42:20;;;;;;;;;;;;;;;21.33;53.88;101427.59;4951495;28;20682;-69
2023/06/11 01:44:45;;;;;;;;;;;;;;;21.28;54.11;101419.38;4939853;28;19942;-69
2023/06/11 01:47:10;;;;;;;;;;;;;;;21.24;54.23;101423.56;4935126;28;19919;-69
2023/06/11 01:49:35;;;;;;;;;;;;;;;21.21;54.31;101425.88;4938988;28;20393;-69
2023/06/11 01:52:00;;;;;;;;;;;;;;;21.18;54.44;101424.47;4939678;28;19946;-69
2023/06/11 01:54:25;;;;;;;;;;;;;;;21.15;54.36;101421.38;4941755;28;19919;-69
2023/06/11 01:56:51;;;;;;;;;;;;;;;21.11;54.43;101423.72;4939566;28;20013;-69
2023/06/11 01:59:17;;;;;;;;;;;;;;;21.09;54.30;101431.19;4940321;28;19919;-69
2023/06/11 02:01:42;;;;;;;;;;;;;;;21.06;54.55;101422.72;4935299;28;19923;-69
2023/06/11 02:04:07;;;;;;;;;;;;;;;21.03;54.87;101421.28;4939825;28;19918;-69
2023/06/11 02:06:33;;;;;;;;;;;;;;;21.01;54.84;101429.63;4948710;28;19918;-69
2023/06/11 02:08:58;;;;;;;;;;;;;;;20.98;54.94;101421.16;4949410;28;20001;-69
2023/06/11 02:11:23;;;;;;;;;;;;;;;20.94;55.08;101425.34;4943516;28;19918;-69
2023/06/11 02:13:49;;;;;;;;;;;;;;;20.90;55.01;101421.47;4939237;28;19930;-69
2023/06/11 02:16:14;;;;;;;;;;;;;;;20.88;55.13;101426.25;4946163;28;19961;-69
2023/06/11 02:18:39;;;;;;;;;;;;;;;20.85;55.30;101424.84;4938720;28;19918;-69
2023/06/11 02:21:04;;;;;;;;;;;;;;;20.85;55.53;101422.13;4941464;28;19946;-69
2023/06/11 02:23:30;;;;;;;;;;;;;;;20.83;55.58;101423.41;4946721;28;19918;-69
2023/06/11 02:25:55;;;;;;;;;;;;;;;20.79;55.83;101428.41;4940543;28;19926;-69
2023/06/11 02:28:20;;;;;;;;;;;;;;;20.77;56.05;101426.97;4938181;28;19966;-69
2023/06/11 02:30:45;;;;;;;;;;;;;;;20.75;56.29;101434.47;4942195;28;20004;-69
2023/06/11 02:33:10;;;;;;;;;;;;;;;20.72;56.30;101420.38;4946952;28;19927;-69
2023/06/11 02:35:36;;;;;;;;;;;;;;;20.70;56.53;101427.06;4938894;28;19934;-69
2023/06/11 02:38:01;;;;;;;;;;;;;;;20.65;56.82;101419.63;4944627;28;19918;-69
2023/06/11 02:40:26;;;;;;;;;;;;;;;20.63;57.09;101420.91;4943199;28;19933;-69
2023/06/11 02:42:51;;;;;;;;;;;;;;;20.61;57.06;101423.84;4942344;28;19927;-69
2023/06/11 02:45:16;;;;;;;;;;;;;;;20.61;57.05;101423.84;4941277;28;19923;-69
2023/06/11 02:47:41;;;;;;;;;;;;;;;20.62;57.36;101425.47;4939307;28;20021;-69
2023/06/11 02:50:07;;;;;;;;;;;;;;;20.60;57.54;101422.19;4938507;28;19922;-69
2023/06/11 02:52:32;;;;;;;;;;;;;;;20.59;57.61;101423.22;4942577;28;19966;-69
2023/06/11 02:54:57;;;;;;;;;;;;;;;20.57;58.38;101424.50;4940577;28;19922;-69
2023/06/11 02:57:22;;;;;;;;;;;;;;;20.54;57.97;101425.78;4937581;28;19971;-69
2023/06/11 02:59:47;;;;;;;;;;;;;;;20.54;57.79;101433.03;4938532;28;20297;-69
2023/06/11 03:02:13;;;;;;;;;;;;;;;20.53;58.11;101424.13;4939277;28;19923;-69
2023/06/11 03:04:39;;;;;;;;;;;;;;;20.52;58.16;101427.00;4940398;28;20173;-69
2023/06/11 03:07:04;;;;;;;;;;;;;;;20.43;58.00;101418.38;4933850;28;20583;-69
2023/06/11 03:09:29;;;;;;;;;;;;;;;20.47;58.33;101432.25;4941668;28;20392;-69
2023/06/11 03:11:54;;;;;;;;;;;;;;;20.44;58.01;101428.13;4949791;28;20009;-68
2023/06/11 03:14:24;;;;;;;;;;;;;;;20.43;57.69;101437.28;4942483;28;19937;-69
2023/06/11 03:16:50;;;;;;;;;;;;;;;20.44;57.99;101432.69;4947534;28;20010;-69
2023/06/11 03:19:15;;;;;;;;;;;;;;;20.44;58.48;101430.81;4935645;28;20006;-68
2023/06/11 03:21:40;;;;;;;;;;;;;;;20.42;58.58;101435.63;4934440;28;19950;-69
2023/06/11 03:24:05;;;;;;;;;;;;;;;20.39;58.67;101434.16;4933139;28;19969;-68
2023/06/11 03:26:31;;;;;;;;;;;;;;;20.37;58.63;101438.13;4935009;28;20009;-69
2023/06/11 03:28:56;;;;;;;;;;;;;;;20.31;58.58;101434.44;4941815;28;19974;-69
2023/06/11 03:31:21;;;;;;;;;;;;;;;20.28;59.16;101431.38;4944084;28;19918;-69
2023/06/11 03:33:46;;;;;;;;;;;;;;;20.25;59.30;101431.81;4940676;28;19922;-69
2023/06/11 03:36:11;;;;;;;;;;;;;;;20.24;59.67;101432.81;4943691;28;20269;-68
2023/06/11 03:38:36;;;;;;;;;;;;;;;20.22;59.29;101443.84;4937944;28;19919;-69
2023/06/11 03:41:02;;;;;;;;;;;;;;;20.19;58.86;101448.84;4949273;28;20026;-68
2023/06/11 03:43:27;;;;;;;;;;;;;;;20.17;59.11;101448.25;4945384;28;19930;-69
2023/06/11 03:45:52;;;;;;;;;;;;;;;20.15;59.67;101442.25;4946929;28;19926;-69
2023/06/11 03:48:17;;;;;;;;;;;;;;;20.15;59.52;101439.53;4935605;28;19958;-69
2023/06/11 03:50:42;;;;;;;;;;;;;;;20.16;59.64;101435.81;4944352;28;20021;-69
2023/06/11 03:53:08;;;;;;;;;;;;;;;20.14;60.37;101451.38;4939538;28;19922;-69
2023/06/11 03:55:33;;;;;;;;;;;;;;;20.09;59.86;101444.78;4948910;28;19922;-69
2023/06/11 03:57:58;;;;;;;;;;;;;;;20.08;60.41;101451.22;4944777;28;20001;-69
2023/06/11 04:00:23;;;;;;;;;;;;;;;20.05;60.84;101457.03;4942134;28;19918;-69
2023/06/11 04:02:49;;;;;;;;;;;;;;;20.03;61.01;101459.13;4938232;28;19976;-68
2023/06/11 04:05:14;;;;;;;;;;;;;;;20.01;60.64;101455.84;4945172;28;19918;-69
2023/06/11 04:07:40;;;;;;;;;;;;;;;20.03;61.03;101458.31;4943648;28;19923;-69
2023/06/11 04:10:06;;;;;;;;;;;;;;;20.03;60.84;101458.31;4945488;28;20388;-68
2023/06/11 04:12:31;;;;;;;;;;;;;;;20.04;61.18;101455.41;4939961;28;19918;-68
2023/06/11 04:14:56;;;;;;;;;;;;;;;20.05;61.16;101448.97;4941198;28;20000;-68
2023/06/11 04:17:21;;;;;;;;;;;;;;;20.07;61.25;101452.25;4938628;28;20666;-68
2023/06/11 04:19:47;;;;;;;;;;;;;;;20.07;61.69;101449.56;4924544;28;20031;-68
2023/06/11 04:22:12;;;;;;;;;;;;;;;20.08;61.80;101461.19;4938057;28;20015;-69
2023/06/11 04:24:37;;;;;;;;;;;;;;;20.07;62.24;101452.25;4942737;28;19948;-69
2023/06/11 04:27:02;;;;;;;;;;;;;;;20.06;61.94;101458.69;4948333;28;20013;-69
2023/06/11 04:29:29;;;;;;;;;;;;;;;20.05;62.06;101462.44;4940035;28;19981;-68
2023/06/11 04:31:54;;;;;;;;;;;;;;;20.04;62.30;101454.56;4938134;28;19919;-68
2023/06/11 04:34:20;;;;;;;;;;;;;;;20.05;62.86;101461.63;4938174;28;20447;-68
2023/06/11 04:36:47;;;;;;;;;;;;;;;20.04;62.71;101455.41;4939938;28;19976;-68
2023/06/11 04:39:12;;;;;;;;;;;;;;;20.06;63.21;101461.41;4939453;28;19918;-67
2023/06/11 04:41:37;;;;;;;;;;;;;;;20.07;62.89;101459.53;4943773;28;19926;-68
2023/06/11 04:44:03;;;;;;;;;;;;;;;20.09;63.45;101460.97;4935824;28;19922;-68
2023/06/11 04:46:28;;;;;;;;;;;;;;;20.10;63.44;101462.59;4936451;28;19977;-68
2023/06/11 04:48:56;;;;;;;;;;;;;;;20.14;63.26;101459.47;4939695;28;19918;-68
2023/06/11 04:51:23;;;;;;;;;;;;;;;20.14;63.23;101448.69;4945116;28;19925;-68
2023/06/11 04:53:52;;;;;;;;;;;;;;;20.17;63.15;101451.75;4941063;28;19941;-68
2023/06/11 04:56:17;;;;;;;;;;;;;;;20.18;63.03;101453.41;4937607;28;20049;-68
2023/06/11 04:58:42;;;;;;;;;;;;;;;20.24;62.97;101455.25;4945560;28;20012;-67
2023/06/11 05:01:08;;;;;;;;;;;;;;;20.31;62.83;101460.59;4939220;28;19922;-69
2023/06/11 05:03:37;;;;;;;;;;;;;;;20.34;63.28;101457.47;4942291;28;19918;-68
2023/06/11 05:06:03;;;;;;;;;;;;;;;20.36;62.88;101461.59;4937900;28;20024;-67
2023/06/11 05:08:28;;;;;;;;;;;;;;;20.40;62.08;101464.69;4939541;28;19934;-68
2023/06/11 05:10:58;;;;;;;;;;;;;;;20.44;62.43;101456.97;4949005;28;19922;-68
2023/06/11 05:13:27;;;;;;;;;;;;;;;20.47;61.91;101456.53;4940039;28;19926;-68
2023/06/11 05:15:52;;;;;;;;;;;;;;;20.51;61.76;101453.16;4938488;28;20050;-68
2023/06/11 05:18:17;;;;;;;;;;;;;;;20.55;61.98;101461.69;4938904;28;20022;-68
2023/06/11 05:20:43;;;;;;;;;;;;;;;20.58;61.32;101462.06;4934971;28;19919;-68
2023/06/11 05:23:08;;;;;;;;;;;;;;;20.61;61.46;101469.72;4944365;28;19926;-68
2023/06/11 05:25:33;;;;;;;;;;;;;;;20.66;61.22;101464.47;4942932;28;20407;-68
2023/06/11 05:28:00;;;;;;;;;;;;;;;20.70;61.33;101462.16;4945032;28;19915;-68
2023/06/11 05:30:25;;;;;;;;;;;;;;;20.73;61.10;101465.22;4943262;28;19925;-68
2023/06/11 05:32:51;;;;;;;;;;;;;;;20.77;60.98;101470.16;4942686;28;19915;-68
2023/06/11 05:35:16;;;;;;;;;;;;;;;20.82;60.39;101464.97;4947112;28;19958;-68
2023/06/11 05:37:42;;;;;;;;;;;;;;;20.87;60.48;101459.72;4945097;28;20104;-68
2023/06/11 05:40:07;;;;;;;;;;;;;;;20.90;60.83;101464.66;4948331;28;19918;-68
2023/06/11 05:42:33;;;;;;;;;;;;;;;20.96;60.72;101466.47;4943351;28;19925;-68
2023/06/11 05:44:58;;;;;;;;;;;;;;;21.01;60.16;101467.44;4936627;28;19919;-69
2023/06/11 05:47:23;;;;;;;;;;;;;;;21.05;59.69;101459.69;4939159;28;19969;-68
2023/06/11 05:49:48;;;;;;;;;;;;;;;21.09;60.10;101460.91;4935209;28;19919;-68
2023/06/11 05:52:13;;;;;;;;;;;;;;;21.14;60.04;101461.06;4935079;28;19919;-68
2023/06/11 05:54:39;;;;;;;;;;;;;;;21.19;59.17;101463.09;4935637;28;19922;-68
2023/06/11 05:57:06;;;;;;;;;;;;;;;21.23;59.17;101464.28;4943858;28;20405;-68
2023/06/11 05:59:31;;;;;;;;;;;;;;;21.28;59.68;101469.88;4940550;28;20013;-68
2023/06/11 06:01:57;;;;;;;;;;;;;;;21.34;58.69;101460.84;4938573;28;20013;-69
2023/06/11 06:04:22;;;;;;;;;;;;;;;21.38;59.16;101462.03;4941972;28;20503;-68
2023/06/11 06:06:47;;;;;;;;;;;;;;;21.43;59.38;101464.09;4945465;28;20355;-69
2023/06/11 06:09:13;;;;;;;;;;;;;;;21.49;59.68;101465.88;4936452;28;19926;-68
2023/06/11 06:11:38;;;;;;;;;;;;;;;21.54;59.88;101472.25;4947292;28;19919;-68
2023/06/11 06:14:03;;;;;;;;;;;;;;;21.62;59.01;101473.81;4939426;28;20432;-68
2023/06/11 06:16:30;;;;;;;;;;;;;;;21.69;59.29;101476.44;4933625;28;19915;-68
2023/06/11 06:18:55;;;;;;;;;;;;;;;21.74;58.75;101480.09;4940891;28;19919;-69
2023/06/11 06:21:20;;;;;;;;;;;;;;;21.78;58.44;101483.19;4944730;28;19942;-68
2023/06/11 06:23:45;;;;;;;;;;;;;;;21.82;58.48;101481.66;4933800;28;20312;-68
2023/06/11 06:26:12;;;;;;;;;;;;;;;21.87;57.93;101481.78;4947018;28;19918;-68
2023/06/11 06:28:37;;;;;;;;;;;;;;;21.91;58.10;101478.38;4935664;28;19915;-69
2023/06/11 06:31:02;;;;;;;;;;;;;;;21.97;57.85;101484.75;4942702;28;19978;-68
2023/06/11 06:33:30;;;;;;;;;;;;;;;22.02;57.96;101484.09;4940971;28;19922;-68
2023/06/11 06:35:55;;;;;;;;;;;;;;;22.08;58.16;101480.47;4934100;28;19919;-69
2023/06/11 06:38:20;;;;;;;;;;;;;;;22.16;58.65;101485.56;4936276;28;20061;-68
2023/06/11 06:40:45;;;;;;;;;;;;;;;22.22;57.85;101490.84;4934500;28;19922;-69
2023/06/11 06:43:10;;;;;;;;;;;;;;;22.26;57.41;101491.22;4936809;28;20021;-69
2023/06/11 06:45:38;;;;;;;;;;;;;;;22.31;57.87;101485.97;4939291;28;20005;-68
2023/06/11 06:48:03;;;;;;;;;;;;;;;22.38;58.02;101485.84;4938190;28;20014;-68
2023/06/11 06:50:28;;;;;;;;;;;;;;;22.46;57.61;101485.50;4943404;28;19954;-68
2023/06/11 06:52:53;;;;;;;;;;;;;;;22.53;58.44;101489.72;4939888;28;19919;-69
2023/06/11 06:55:18;;;;;;;;;;;;;;;22.62;58.09;101492.13;4941047;28;19925;-68
2023/06/11 06:57:43;;;;;;;;;;;;;;;22.68;57.75;101491.16;4939360;28;19922;-68
2023/06/11 07:00:09;;;;;;;;;;;;;;;22.72;57.79;101489.63;4938245;28;20009;-69
2023/06/11 07:02:35;;;;;;;;;;;;;;;22.76;57.55;101483.50;4939727;28;19995;-68
2023/06/11 07:05:00;;;;;;;;;;;;;;;22.81;57.20;101483.66;4938733;28;19915;-68
2023/06/11 07:07:25;;;;;;;;;;;;;;;22.88;57.63;101483.56;4935109;28;20495;-69
2023/06/11 07:09:50;;;;;;;;;;;;;;;22.94;57.77;101482.59;4940668;28;19919;-69
2023/06/11 07:12:16;;;;;;;;;;;;;;;23.01;56.73;101488.72;4940085;28;19915;-69
2023/06/11 07:14:41;;;;;;;;;;;;;;;23.06;57.39;101488.81;4932729;28;20427;-69
2023/06/11 07:17:06;;;;;;;;;;;;;;;23.14;57.60;101485.78;4937903;28;20487;-68
2023/06/11 07:19:32;;;;;;;;;;;;;;;23.21;57.12;101485.63;4941366;28;20443;-69
2023/06/11 07:21:57;;;;;;;;;;;;;;;23.29;57.56;101481.72;4936115;28;19926;-69
2023/06/11 07:24:23;;;;;;;;;;;;;;;23.38;56.78;101493.84;4935287;28;20412;-69
2023/06/11 07:26:48;;;;;;;;;;;;;;;23.46;56.88;101493.47;4938280;28;19949;-69
2023/06/11 07:29:13;;;;;;;;;;;;;;;23.54;56.60;101486.84;4935510;28;19930;-69
2023/06/11 07:31:38;;;;;;;;;;;;;;;23.61;56.43;101491.09;4941749;28;20009;-69
2023/06/11 07:34:06;;;;;;;;;;;;;;;23.66;56.19;101499.31;4934113;28;19946;-69
2023/06/11 07:36:31;;;;;;;;;;;;;;;23.71;56.32;101494.03;4940786;28;19918;-69
2023/06/11 07:38:56;;;;;;;;;;;;;;;23.77;56.01;101498.47;4932540;28;19914;-69
2023/06/11 07:41:21;;;;;;;;;;;;;;;23.85;55.62;101499.97;4933297;28;20383;-68
2023/06/11 07:43:46;;;;;;;;;;;;;;;23.92;55.77;101494.38;4942274;28;19923;-69
2023/06/11 07:46:13;;;;;;;;;;;;;;;24.00;55.84;101497.56;4935939;28;20464;-68
2023/06/11 07:48:41;;;;;;;;;;;;;;;24.08;55.89;101499.03;4935695;28;19933;-68
2023/06/11 07:51:06;;;;;;;;;;;;;;;24.13;55.89;101493.69;4938566;28;19922;-69
2023/06/11 07:53:33;;;;;;;;;;;;;;;24.21;55.58;101489.75;4942369;28;19918;-68
2023/06/11 07:55:58;;;;;;;;;;;;;;;24.26;55.54;101490.66;4947831;28;20572;-69
2023/06/11 07:58:23;;;;;;;;;;;;;;;24.33;55.00;101494.09;4931597;28;19962;-68
2023/06/11 08:00:48;;;;;;;;;;;;;;;24.39;54.83;101503.94;4934502;28;19929;-68
2023/06/11 08:03:14;;;;;;;;;;;;;;;24.45;54.80;101493.16;4934278;28;19985;-68
2023/06/11 08:05:39;;;;;;;;;;;;;;;24.52;54.31;101501.97;4934435;28;19969;-68
2023/06/11 08:08:04;;;;;;;;;;;;;;;24.61;54.40;101492.34;4931765;28;19926;-67
2023/06/11 08:10:31;;;;;;;;;;;;;;;24.71;54.42;101495.22;4942734;28;19918;-68
2023/06/11 08:12:56;;;;;;;;;;;;;;;24.80;54.02;101496.44;4938895;28;19918;-68
2023/06/11 08:15:21;;;;;;;;;;;;;;;24.87;53.89;101497.09;4942392;28;19925;-67
2023/06/11 08:17:47;;;;;;;;;;;;;;;24.95;53.74;101496.66;4947736;28;19926;-68
2023/06/11 08:20:12;;;;;;;;;;;;;;;25.04;53.74;101494.38;4948632;28;19915;-68
2023/06/11 08:22:37;;;;;;;;;;;;;;;25.13;53.18;101489.31;4940952;28;20385;-68
2023/06/11 08:25:02;;;;;;;;;;;;;;;25.20;52.94;101484.53;4940577;28;19921;-68
2023/06/11 08:27:27;;;;;;;;;;;;;;;25.28;52.90;101493.06;4938385;28;20266;-68
2023/06/11 08:29:53;;;;;;;;;;;;;;;25.40;52.69;101489.38;4942968;28;19919;-68
2023/06/11 08:32:18;;;;;;;;;;;;;;;25.49;52.62;101485.16;4947512;28;20448;-68
2023/06/11 08:34:43;;;;;;;;;;;;;;;25.60;52.24;101479.56;4937999;28;19918;-68
2023/06/11 08:37:08;;;;;;;;;;;;;;;25.70;52.29;101480.78;4935260;28;20400;-67
2023/06/11 08:39:33;;;;;;;;;;;;;;;25.79;51.81;101476.56;4931110;28;19914;-68
2023/06/11 08:41:58;;;;;;;;;;;;;;;25.83;50.93;101483.13;4939646;28;19927;-68
2023/06/11 08:44:24;;;;;;;;;;;;;;;25.94;51.18;101479.41;4937073;28;20443;-68
2023/06/11 08:46:49;;;;;;;;;;;;;;;26.06;51.04;101474.66;4940695;28;19922;-68
2023/06/11 08:49:20;;;;;;;;;;;;;;;26.17;50.55;101481.81;4934147;28;19922;-68
2023/06/11 08:51:46;;;;;;;;;;;;;;;26.28;50.87;101481.91;4932780;28;19926;-69
2023/06/11 08:54:12;;;;;;;;;;;;;;;26.39;50.23;101476.31;4935235;28;19915;-68
2023/06/11 08:56:37;;;;;;;;;;;;;;;26.49;49.88;101478.28;4932906;28;19977;-68
2023/06/11 08:59:03;;;;;;;;;;;;;;;26.57;49.22;101472.34;4933311;28;19918;-68
2023/06/11 09:01:28;;;;;;;;;;;;;;;26.66;49.06;101480.88;4941987;28;19919;-68
2023/06/11 09:03:53;;;;;;;;;;;;;;;26.69;48.98;101481.16;4937092;28;20663;-68
2023/06/11 09:06:19;;;;;;;;;;;;;;;26.73;48.91;101468.66;4941169;28;20460;-68
2023/06/11 09:08:55;;;;;;;;;;;;;;;26.78;48.56;101471.41;4932599;28;19918;-69
2023/06/11 09:11:21;;;;;;;;;;;;;;;26.90;48.55;101463.03;4943394;28;19934;-68
2023/06/11 09:13:46;;;;;;;;;;;;;;;27.03;48.06;101464.50;4934433;28;19923;-68
2023/06/11 09:16:13;;;;;;;;;;;;;;;27.16;48.15;101469.44;4936403;28;21311;-69
2023/06/11 09:18:42;;;;;;;;;;;;;;;27.24;47.51;101468.97;4934713;28;19922;-68
2023/06/11 09:21:07;;;;;;;;;;;;;;;27.31;47.24;101463.25;4942943;28;19958;-69
2023/06/11 09:23:34;;;;;;;;;;;;;;;27.39;47.20;101470.91;4941831;28;19961;-69
2023/06/11 09:26:00;;;;;;;;;;;;;;;27.51;47.07;101466.06;4935857;28;19966;-69
2023/06/11 09:28:32;;;;;;;;;;;;;;;27.63;46.93;101466.66;4930828;28;19919;-69
2023/06/11 09:30:58;;;;;;;;;;;;;;;27.73;46.83;101463.13;4939691;28;19922;-68
2023/06/11 09:33:24;;;;;;;;;;;;;;;27.80;46.24;101463.72;4935442;28;19965;-68
2023/06/11 09:35:50;;;;;;;;;;;;;;;27.87;46.03;101457.97;4937322;28;19919;-69
2023/06/11 09:38:16;;;;;;;;;;;;;;;27.93;45.23;101471.34;4931747;28;20017;-68
2023/06/11 09:40:45;;;;;;;;;;;;;;;27.93;45.22;101468.63;4941327;28;20017;-68
2023/06/11 09:43:11;;;;;;;;;;;;;;;27.98;44.55;101468.63;4942560;28;19926;-69
2023/06/11 09:45:37;;;;;;;;;;;;;;;28.05;44.65;101474.66;4938247;28;20328;-69
2023/06/11 09:48:03;;;;;;;;;;;;;;;28.12;44.94;101468.94;4937141;28;20341;-69
2023/06/11 09:50:28;;;;;;;;;;;;;;;28.21;44.82;101461.00;4942822;28;20320;-69
2023/06/11 09:52:54;;;;;;;;;;;;;;;28.28;45.11;101467.84;4945437;28;19926;-69
2023/06/11 09:55:21;;;;;;;;;;;;;;;28.40;44.71;101470.31;4943529;28;19950;-69
2023/06/11 09:57:47;;;;;;;;;;;;;;;28.53;44.26;101468.94;4932046;28;20251;-69
2023/06/11 10:00:13;;;;;;;;;;;;;;;28.59;43.21;101476.03;4931566;28;19937;-69
2023/06/11 10:02:39;;;;;;;;;;;;;;;28.67;43.43;101473.56;4935910;28;20400;-69
2023/06/11 10:05:06;;;;;;;;;;;;;;;28.79;43.53;101472.44;4936394;28;19915;-69
2023/06/11 10:07:32;;;;;;;;;;;;;;;28.89;41.94;101469.72;4940787;28;19925;-69
2023/06/11 10:09:58;;;;;;;;;;;;;;;28.97;41.96;101469.97;4948991;28;19926;-69
2023/06/11 10:12:23;;;;;;;;;;;;;;;29.12;42.03;101466.34;4949798;28;19919;-69
2023/06/11 10:14:49;;;;;;;;;;;;;;;29.23;41.73;101475.34;4934063;28;19919;-69
2023/06/11 10:17:15;;;;;;;;;;;;;;;29.26;40.85;101464.66;4947052;28;19949;-69
2023/06/11 10:19:40;;;;;;;;;;;;;;;29.33;41.39;101463.53;4940351;28;19972;-69
2023/06/11 10:22:05;;;;;;;;;;;;;;;29.36;40.95;101471.19;4941383;28;20017;-71
2023/06/11 10:24:31;;;;;;;;;;;;;;;29.37;41.08;101470.91;4946306;28;19974;-70
2023/06/11 10:27:07;;;;;;;;;;;;;;;29.46;41.33;101463.75;4938321;28;20010;-70
2023/06/11 10:29:50;;;;;;;;;;;;;;;29.51;41.40;101469.22;4938097;28;19914;-69
2023/06/11 10:32:19;;;;;;;;;;;;;;;29.60;41.14;101463.97;4940863;28;19923;-70
2023/06/11 10:34:45;;;;;;;;;;;;;;;29.68;40.57;101457.06;4935457;28;19922;-69
2023/06/11 10:37:11;;;;;;;;;;;;;;;29.80;40.51;101457.56;4941670;28;19919;-69
2023/06/11 10:39:48;;;;;;;;;;;;;;;29.90;39.94;101452.00;4935523;28;19914;-70
2023/06/11 10:42:21;;;;;;;;;;;;;;;29.89;40.19;101458.59;4943396;28;19923;-70
2023/06/11 10:44:46;;;;;;;;;;;;;;;29.87;39.91;101453.41;4939558;28;19918;-70
2023/06/11 10:47:12;;;;;;;;;;;;;;;29.91;39.32;101448.16;4942834;28;19966;-69
2023/06/11 10:49:37;;;;;;;;;;;;;;;29.92;39.55;101452.53;4933501;28;20312;-69
2023/06/11 10:52:02;;;;;;;;;;;;;;;29.94;39.58;101447.59;4943134;28;19941;-69
2023/06/11 10:54:32;;;;;;;;;;;;;;;30.00;38.92;101451.91;4941651;28;19965;-70
2023/06/11 10:56:58;;;;;;;;;;;;;;;30.01;38.69;101441.78;4939754;28;19950;-70
2023/06/11 10:59:24;;;;;;;;;;;;;;;30.02;38.90;101446.16;4942196;28;19922;-69
2023/06/11 11:01:53;;;;;;;;;;;;;;;30.09;38.77;101449.44;4927289;29;19919;-69
2023/06/11 11:04:18;;;;;;;;;;;;;;;30.06;38.56;101449.97;4940160;29;20050;-69
2023/06/11 11:06:44;;;;;;;;;;;;;;;30.10;37.74;101446.41;4937271;28;20021;-69
2023/06/11 11:09:09;;;;;;;;;;;;;;;30.17;38.40;101459.78;4938988;28;19996;-70
2023/06/11 11:11:34;;;;;;;;;;;;;;;30.20;37.39;101442.75;4945939;28;20308;-70
2023/06/11 11:14:00;;;;;;;;;;;;;;;30.20;37.00;101456.44;4947165;28;19918;-69
2023/06/11 11:16:25;;;;;;;;;;;;;;;30.18;38.08;101458.66;4944063;28;20017;-70
2023/06/11 11:18:51;;;;;;;;;;;;;;;30.13;37.08;101447.75;4941444;28;19926;-70
2023/06/11 11:21:16;;;;;;;;;;;;;;;30.02;36.32;101454.38;4936580;28;19934;-70
2023/06/11 11:23:42;;;;;;;;;;;;;;;30.01;37.36;101441.78;4933167;28;20079;-70
2023/06/11 11:26:07;;;;;;;;;;;;;;;30.03;37.35;101450.56;4934970;28;19974;-70
2023/06/11 11:28:33;;;;;;;;;;;;;;;30.09;36.57;101449.44;4944440;28;19949;-70
2023/06/11 11:30:59;;;;;;;;;;;;;;;30.12;35.90;101444.19;4938713;28;19922;-70
2023/06/11 11:33:25;;;;;;;;;;;;;;;30.25;36.79;101441.88;4940441;28;19919;-69
2023/06/11 11:35:53;;;;;;;;;;;;;;;30.33;36.87;101439.34;4940972;28;19926;-70
2023/06/11 11:38:18;;;;;;;;;;;;;;;30.39;36.18;101437.38;4935293;28;19925;-70
2023/06/11 11:40:44;;;;;;;;;;;;;;;30.39;35.81;101443.69;4941149;28;21426;-70
2023/06/11 11:43:12;;;;;;;;;;;;;;;30.41;35.94;101433.25;4943263;28;20297;-70
2023/06/11 11:45:38;;;;;;;;;;;;;;;30.46;35.60;101435.13;4937747;28;19946;-70
2023/06/11 11:48:03;;;;;;;;;;;;;;;30.49;35.46;101437.28;4945020;28;20396;-70
2023/06/11 11:50:30;;;;;;;;;;;;;;;30.47;35.69;101429.34;4943081;28;19953;-70
2023/06/11 11:53:03;;;;;;;;;;;;;;;30.49;35.93;101435.34;4941399;28;20533;-71
2023/06/11 11:55:28;;;;;;;;;;;;;;;30.49;35.96;101437.28;4943040;28;20308;-70
2023/06/11 11:58:04;;;;;;;;;;;;;;;30.41;36.13;101435.97;4935867;28;20377;-70
2023/06/11 12:00:30;;;;;;;;;;;;;;;30.39;36.01;101437.38;4936949;28;19933;-71
2023/06/11 12:02:55;;;;;;;;;;;;;;;30.44;35.61;101426.38;4939049;28;19926;-70
2023/06/11 12:05:21;;;;;;;;;;;;;;;30.50;35.05;101433.44;4942464;28;19918;-70
2023/06/11 12:07:52;;;;;;;;;;;;;;;30.59;35.62;101431.69;4941015;28;19919;-70
2023/06/11 12:10:17;;;;;;;;;;;;;;;30.59;35.46;101425.38;4944249;28;19921;-71
2023/06/11 12:12:42;;;;;;;;;;;;;;;30.66;35.62;101437.69;4938537;28;19914;-70
2023/06/11 12:15:08;;;;;;;;;;;;;;;30.66;34.78;101425.91;4940099;28;20057;-70
2023/06/11 12:17:33;;;;;;;;;;;;;;;30.73;34.69;101427.19;4946771;28;19926;-70
2023/06/11 12:19:58;;;;;;;;;;;;;;;30.65;34.01;101425.09;4945861;28;19915;-71
2023/06/11 12:22:24;;;;;;;;;;;;;;;30.60;33.68;101421.53;4939336;28;20368;-71
2023/06/11 12:24:50;;;;;;;;;;;;;;;30.58;33.95;101424.56;4945655;28;19922;-71
2023/06/11 12:27:15;;;;;;;;;;;;;;;30.57;34.04;101414.69;4942053;28;19933;-71
2023/06/11 12:29:40;;;;;;;;;;;;;;;30.65;34.80;101410.53;4935061;28;20380;-71